VOZ1002 YBBN-YMHB
Flight info
| Callsign | VOZ1002 |
|---|---|
| Flight time | 2h 37m |
| Altitude | 36000 |
| Route | BN H91 ADMAR Q78 OLTIN H201 TESAT H65 WOL H20 MOTRA W407 TASUM |
| Aircraft | B738/M-SDE2E3FGHIRWXY/LB1 |
Departure
| Time | 2026-05-09 09:39 |
|---|---|
| Airport | Brisbane International Airport (YBBN) |
Arrival
| Time | 2026-05-09 12:16 |
|---|---|
| Airport | Hobart International Airport (YMHB) |
| Time | Latitude | Longitude | Altitude | Speed | Heading |
|---|---|---|---|---|---|
| 2026-05-09 09:24 | -27.38836 | 153.11848 | 20 ft | 0 kts | 70° |
| 2026-05-09 09:30 | -27.38840 | 153.11837 | 22 ft | 4 kts | 54° |
| 2026-05-09 09:30 | -27.38852 | 153.11818 | 22 ft | 4 kts | 61° |
| 2026-05-09 09:30 | -27.38858 | 153.11799 | 24 ft | 4 kts | 141° |
| 2026-05-09 09:30 | -27.38836 | 153.11788 | 23 ft | 3 kts | 160° |
| 2026-05-09 09:31 | -27.38833 | 153.11787 | 23 ft | 0 kts | 160° |
| 2026-05-09 09:34 | -27.38835 | 153.11788 | 23 ft | 2 kts | 160° |
| 2026-05-09 09:34 | -27.38884 | 153.11801 | 20 ft | 10 kts | 187° |
| 2026-05-09 09:34 | -27.38918 | 153.11835 | 20 ft | 8 kts | 91° |
| 2026-05-09 09:36 | -27.39279 | 153.12029 | 22 ft | 15 kts | 206° |
| 2026-05-09 09:36 | -27.39378 | 153.11973 | 22 ft | 17 kts | 207° |
| 2026-05-09 09:36 | -27.39484 | 153.11934 | 21 ft | 16 kts | 155° |
| 2026-05-09 09:37 | -27.39543 | 153.12036 | 20 ft | 11 kts | 117° |
| 2026-05-09 09:37 | -27.39565 | 153.12085 | 21 ft | 5 kts | 117° |
| 2026-05-09 09:37 | -27.39569 | 153.12095 | 20 ft | 0 kts | 117° |
| 2026-05-09 09:37 | -27.39569 | 153.12096 | 20 ft | 0 kts | 117° |
| 2026-05-09 09:38 | -27.39580 | 153.12120 | 20 ft | 9 kts | 114° |
| 2026-05-09 09:38 | -27.39562 | 153.12222 | 20 ft | 20 kts | 49° |
| 2026-05-09 09:38 | -27.39273 | 153.12400 | 18 ft | 80 kts | 27° |
| 2026-05-09 09:38 | -27.38588 | 153.12790 | 22 ft | 137 kts | 27° |
| 2026-05-09 09:39 | -27.37605 | 153.13344 | 167 ft | 170 kts | 26° |
| 2026-05-09 09:39 | -27.36557 | 153.13941 | 826 ft | 168 kts | 32° |
| 2026-05-09 09:39 | -27.35683 | 153.14854 | 1350 ft | 172 kts | 55° |
| 2026-05-09 09:39 | -27.34927 | 153.15846 | 2143 ft | 169 kts | 53° |
| 2026-05-09 09:40 | -27.34099 | 153.16907 | 2441 ft | 197 kts | 52° |
| 2026-05-09 09:40 | -27.33126 | 153.18126 | 2666 ft | 221 kts | 51° |
| 2026-05-09 09:40 | -27.32041 | 153.19463 | 2940 ft | 238 kts | 50° |
| 2026-05-09 09:40 | -27.30888 | 153.20868 | 3379 ft | 250 kts | 50° |
| 2026-05-09 09:41 | -27.29690 | 153.22322 | 4039 ft | 254 kts | 50° |
| 2026-05-09 09:41 | -27.28770 | 153.23978 | 4846 ft | 250 kts | 77° |
| 2026-05-09 09:41 | -27.28715 | 153.25931 | 5436 ft | 256 kts | 105° |
| 2026-05-09 09:41 | -27.29544 | 153.27716 | 6032 ft | 263 kts | 134° |
| 2026-05-09 09:42 | -27.31065 | 153.28850 | 6720 ft | 266 kts | 162° |
| 2026-05-09 09:42 | -27.32894 | 153.29004 | 7465 ft | 267 kts | 189° |
| 2026-05-09 09:42 | -27.34676 | 153.28354 | 8127 ft | 273 kts | 202° |
| 2026-05-09 09:42 | -27.36429 | 153.27479 | 8831 ft | 276 kts | 204° |
| 2026-05-09 09:43 | -27.38178 | 153.26566 | 9547 ft | 280 kts | 204° |
| 2026-05-09 09:43 | -27.39960 | 153.25634 | 10204 ft | 286 kts | 204° |
| 2026-05-09 09:43 | -27.41828 | 153.24664 | 10414 ft | 307 kts | 204° |
| 2026-05-09 09:43 | -27.43837 | 153.23631 | 10582 ft | 328 kts | 204° |
| 2026-05-09 09:44 | -27.45980 | 153.22536 | 10743 ft | 348 kts | 204° |
| 2026-05-09 09:44 | -27.48238 | 153.21388 | 11005 ft | 362 kts | 204° |
| 2026-05-09 09:44 | -27.50555 | 153.20213 | 11512 ft | 367 kts | 204° |
| 2026-05-09 09:44 | -27.52899 | 153.19027 | 12127 ft | 370 kts | 204° |
| 2026-05-09 09:45 | -27.55226 | 153.17850 | 12751 ft | 373 kts | 204° |
| 2026-05-09 09:45 | -27.57634 | 153.16634 | 13362 ft | 376 kts | 205° |
| 2026-05-09 09:45 | -27.60005 | 153.15435 | 13949 ft | 380 kts | 205° |
| 2026-05-09 09:45 | -27.62436 | 153.14206 | 14509 ft | 384 kts | 205° |
| 2026-05-09 09:46 | -27.64880 | 153.12969 | 15096 ft | 387 kts | 205° |
| 2026-05-09 09:46 | -27.67341 | 153.11723 | 15701 ft | 389 kts | 205° |
| 2026-05-09 09:46 | -27.69815 | 153.10470 | 16308 ft | 391 kts | 205° |
| 2026-05-09 09:46 | -27.72310 | 153.09205 | 16891 ft | 395 kts | 205° |
| 2026-05-09 09:47 | -27.74825 | 153.07930 | 17457 ft | 398 kts | 206° |
| 2026-05-09 09:47 | -27.77365 | 153.06641 | 18024 ft | 401 kts | 206° |
| 2026-05-09 09:47 | -27.79918 | 153.05346 | 18581 ft | 404 kts | 206° |
| 2026-05-09 09:47 | -27.82496 | 153.04053 | 19063 ft | 407 kts | 205° |
| 2026-05-09 09:48 | -27.85136 | 153.02852 | 19562 ft | 410 kts | 203° |
| 2026-05-09 09:48 | -27.87807 | 153.01701 | 20070 ft | 412 kts | 203° |
| 2026-05-09 09:48 | -27.90499 | 153.00555 | 20573 ft | 415 kts | 203° |
| 2026-05-09 09:48 | -27.93205 | 152.99396 | 21072 ft | 417 kts | 203° |
| 2026-05-09 09:49 | -27.95923 | 152.98221 | 21555 ft | 419 kts | 204° |
| 2026-05-09 09:49 | -27.98660 | 152.97030 | 22024 ft | 422 kts | 204° |
| 2026-05-09 09:49 | -28.01404 | 152.95830 | 22480 ft | 424 kts | 204° |
| 2026-05-09 09:49 | -28.04170 | 152.94617 | 22927 ft | 427 kts | 204° |
| 2026-05-09 09:50 | -28.06917 | 152.93413 | 23362 ft | 429 kts | 204° |
| 2026-05-09 09:50 | -28.09711 | 152.92188 | 23794 ft | 432 kts | 204° |
| 2026-05-09 09:50 | -28.12522 | 152.90944 | 24155 ft | 435 kts | 204° |
| 2026-05-09 09:50 | -28.15346 | 152.89687 | 24472 ft | 438 kts | 204° |
| 2026-05-09 09:51 | -28.18187 | 152.88419 | 24858 ft | 439 kts | 205° |
| 2026-05-09 09:51 | -28.21023 | 152.87154 | 25269 ft | 439 kts | 205° |
| 2026-05-09 09:51 | -28.23886 | 152.85876 | 25639 ft | 440 kts | 206° |
| 2026-05-09 09:51 | -28.26709 | 152.84616 | 25987 ft | 442 kts | 206° |
| 2026-05-09 09:52 | -28.29572 | 152.83337 | 26329 ft | 443 kts | 206° |
| 2026-05-09 09:52 | -28.32446 | 152.82054 | 26678 ft | 444 kts | 207° |
| 2026-05-09 09:52 | -28.35335 | 152.80763 | 27030 ft | 445 kts | 207° |
| 2026-05-09 09:52 | -28.38224 | 152.79471 | 27315 ft | 448 kts | 207° |
| 2026-05-09 09:53 | -28.41136 | 152.78168 | 27564 ft | 450 kts | 207° |
| 2026-05-09 09:53 | -28.44068 | 152.76856 | 27858 ft | 451 kts | 208° |
| 2026-05-09 09:53 | -28.46958 | 152.75562 | 28174 ft | 452 kts | 208° |
| 2026-05-09 09:53 | -28.49925 | 152.74233 | 28506 ft | 453 kts | 208° |
| 2026-05-09 09:54 | -28.52811 | 152.72941 | 28931 ft | 450 kts | 209° |
| 2026-05-09 09:54 | -28.55713 | 152.71642 | 29449 ft | 446 kts | 209° |
| 2026-05-09 09:54 | -28.58597 | 152.70350 | 29952 ft | 443 kts | 210° |
| 2026-05-09 09:54 | -28.61464 | 152.69063 | 30418 ft | 442 kts | 210° |
| 2026-05-09 09:55 | -28.64323 | 152.67776 | 30699 ft | 442 kts | 210° |
| 2026-05-09 09:55 | -28.67190 | 152.66485 | 31036 ft | 441 kts | 210° |
| 2026-05-09 09:55 | -28.70034 | 152.65206 | 31439 ft | 438 kts | 211° |
| 2026-05-09 09:55 | -28.72863 | 152.63933 | 31871 ft | 435 kts | 211° |
| 2026-05-09 09:56 | -28.75633 | 152.62686 | 32254 ft | 433 kts | 211° |
| 2026-05-09 09:56 | -28.78434 | 152.61422 | 32593 ft | 431 kts | 212° |
| 2026-05-09 09:56 | -28.81213 | 152.60167 | 32953 ft | 430 kts | 212° |
| 2026-05-09 09:56 | -28.83994 | 152.58913 | 33347 ft | 427 kts | 212° |
| 2026-05-09 09:57 | -28.86750 | 152.57671 | 33713 ft | 425 kts | 212° |
| 2026-05-09 09:57 | -28.89504 | 152.56434 | 34072 ft | 424 kts | 212° |
| 2026-05-09 09:57 | -28.92245 | 152.55204 | 34399 ft | 422 kts | 213° |
| 2026-05-09 09:57 | -28.94968 | 152.53981 | 34672 ft | 420 kts | 213° |
| 2026-05-09 09:58 | -28.97691 | 152.52756 | 34888 ft | 420 kts | 213° |
| 2026-05-09 09:58 | -29.00411 | 152.51531 | 35105 ft | 420 kts | 213° |
| 2026-05-09 09:58 | -29.03134 | 152.50303 | 35323 ft | 420 kts | 213° |
| 2026-05-09 09:58 | -29.05854 | 152.49076 | 35563 ft | 419 kts | 213° |
| 2026-05-09 09:59 | -29.08565 | 152.47853 | 35800 ft | 419 kts | 213° |
| 2026-05-09 09:59 | -29.11283 | 152.46625 | 35915 ft | 421 kts | 213° |
| 2026-05-09 09:59 | -29.13971 | 152.45412 | 36065 ft | 420 kts | 213° |
| 2026-05-09 09:59 | -29.16688 | 152.44184 | 36297 ft | 419 kts | 213° |
| 2026-05-09 10:00 | -29.19405 | 152.42954 | 36297 ft | 421 kts | 213° |
| 2026-05-09 10:00 | -29.24836 | 152.40498 | 36322 ft | 418 kts | 213° |
| 2026-05-09 10:01 | -29.30246 | 152.38047 | 36376 ft | 419 kts | 213° |
| 2026-05-09 10:01 | -29.35673 | 152.35584 | 36358 ft | 420 kts | 212° |
| 2026-05-09 10:02 | -29.41125 | 152.33106 | 36341 ft | 423 kts | 212° |
| 2026-05-09 10:02 | -29.46609 | 152.30614 | 36337 ft | 424 kts | 212° |
| 2026-05-09 10:03 | -29.52115 | 152.28104 | 36355 ft | 426 kts | 212° |
| 2026-05-09 10:03 | -29.57601 | 152.25598 | 36354 ft | 428 kts | 212° |
| 2026-05-09 10:04 | -29.63150 | 152.23061 | 36348 ft | 430 kts | 211° |
| 2026-05-09 10:04 | -29.68720 | 152.20513 | 36343 ft | 431 kts | 211° |
| 2026-05-09 10:05 | -29.74294 | 152.17960 | 36347 ft | 432 kts | 211° |
| 2026-05-09 10:05 | -29.78934 | 152.15833 | 36352 ft | 431 kts | 211° |
| 2026-05-09 10:06 | -29.84497 | 152.13281 | 36349 ft | 430 kts | 211° |
| 2026-05-09 10:06 | -29.90965 | 152.10307 | 36348 ft | 429 kts | 211° |
| 2026-05-09 10:07 | -29.95609 | 152.08169 | 36343 ft | 429 kts | 211° |
| 2026-05-09 10:07 | -30.01114 | 152.05632 | 36365 ft | 428 kts | 210° |
| 2026-05-09 10:08 | -30.06643 | 152.03081 | 36361 ft | 428 kts | 210° |
| 2026-05-09 10:08 | -30.12183 | 152.00521 | 36356 ft | 428 kts | 210° |
| 2026-05-09 10:09 | -30.17714 | 151.97962 | 36366 ft | 428 kts | 210° |
| 2026-05-09 10:09 | -30.23258 | 151.95395 | 36367 ft | 429 kts | 210° |
| 2026-05-09 10:10 | -30.28773 | 151.92838 | 36360 ft | 429 kts | 210° |
| 2026-05-09 10:10 | -30.34440 | 151.90519 | 36354 ft | 439 kts | 202° |
| 2026-05-09 10:11 | -30.40435 | 151.89011 | 36362 ft | 442 kts | 201° |
| 2026-05-09 10:11 | -30.46468 | 151.87559 | 36385 ft | 442 kts | 200° |
| 2026-05-09 10:12 | -30.52499 | 151.86062 | 36372 ft | 443 kts | 200° |
| 2026-05-09 10:12 | -30.58486 | 151.84545 | 36362 ft | 443 kts | 200° |
| 2026-05-09 10:13 | -30.64520 | 151.83004 | 36362 ft | 444 kts | 200° |
| 2026-05-09 10:13 | -30.70557 | 151.81461 | 36372 ft | 444 kts | 200° |
| 2026-05-09 10:14 | -30.76596 | 151.79915 | 36352 ft | 445 kts | 199° |
| 2026-05-09 10:14 | -30.82651 | 151.78364 | 36352 ft | 445 kts | 199° |
| 2026-05-09 10:15 | -30.88706 | 151.76811 | 36354 ft | 445 kts | 199° |
| 2026-05-09 10:15 | -30.94761 | 151.75256 | 36359 ft | 446 kts | 199° |
| 2026-05-09 10:16 | -31.00829 | 151.73696 | 36355 ft | 447 kts | 199° |
| 2026-05-09 10:16 | -31.06885 | 151.72136 | 36348 ft | 448 kts | 199° |
| 2026-05-09 10:17 | -31.12978 | 151.70566 | 36353 ft | 448 kts | 199° |
| 2026-05-09 10:17 | -31.19043 | 151.69000 | 36359 ft | 448 kts | 198° |
| 2026-05-09 10:18 | -31.25149 | 151.67422 | 36352 ft | 449 kts | 198° |
| 2026-05-09 10:18 | -31.31245 | 151.65844 | 36354 ft | 449 kts | 198° |
| 2026-05-09 10:19 | -31.37343 | 151.64263 | 36349 ft | 449 kts | 198° |
| 2026-05-09 10:19 | -31.43463 | 151.62675 | 36345 ft | 449 kts | 197° |
| 2026-05-09 10:20 | -31.49535 | 151.61097 | 36347 ft | 449 kts | 198° |
| 2026-05-09 10:20 | -31.55643 | 151.59508 | 36347 ft | 449 kts | 198° |
| 2026-05-09 10:21 | -31.61754 | 151.57916 | 36348 ft | 449 kts | 198° |
| 2026-05-09 10:21 | -31.67871 | 151.56319 | 36354 ft | 450 kts | 197° |
| 2026-05-09 10:22 | -31.73993 | 151.54720 | 36347 ft | 450 kts | 197° |
| 2026-05-09 10:22 | -31.80064 | 151.53117 | 36345 ft | 449 kts | 198° |
| 2026-05-09 10:23 | -31.86069 | 151.51079 | 36364 ft | 447 kts | 201° |
| 2026-05-09 10:23 | -31.91999 | 151.48860 | 36349 ft | 447 kts | 201° |
| 2026-05-09 10:24 | -31.97930 | 151.46665 | 36347 ft | 447 kts | 201° |
| 2026-05-09 10:24 | -32.03864 | 151.44505 | 36347 ft | 447 kts | 200° |
| 2026-05-09 10:25 | -32.09772 | 151.42364 | 36356 ft | 447 kts | 200° |
| 2026-05-09 10:25 | -32.15730 | 151.40204 | 36346 ft | 448 kts | 200° |
| 2026-05-09 10:26 | -32.21685 | 151.38040 | 36348 ft | 447 kts | 200° |
| 2026-05-09 10:26 | -32.27643 | 151.35871 | 36347 ft | 448 kts | 200° |
| 2026-05-09 10:27 | -32.33602 | 151.33699 | 36343 ft | 448 kts | 199° |
| 2026-05-09 10:27 | -32.39527 | 151.31536 | 36333 ft | 448 kts | 200° |
| 2026-05-09 10:28 | -32.45488 | 151.29357 | 36338 ft | 449 kts | 200° |
| 2026-05-09 10:28 | -32.51457 | 151.27173 | 36334 ft | 449 kts | 200° |
| 2026-05-09 10:29 | -32.57562 | 151.25531 | 36329 ft | 454 kts | 186° |
| 2026-05-09 10:29 | -32.63886 | 151.25218 | 36333 ft | 454 kts | 185° |
| 2026-05-09 10:30 | -32.70213 | 151.24941 | 36338 ft | 455 kts | 185° |
| 2026-05-09 10:30 | -32.76500 | 151.24608 | 36336 ft | 455 kts | 185° |
| 2026-05-09 10:31 | -32.82829 | 151.24249 | 36343 ft | 455 kts | 185° |
| 2026-05-09 10:31 | -32.89160 | 151.23890 | 36332 ft | 455 kts | 185° |
| 2026-05-09 10:32 | -32.95496 | 151.23535 | 36338 ft | 456 kts | 185° |
| 2026-05-09 10:32 | -33.01840 | 151.23236 | 36340 ft | 456 kts | 184° |
| 2026-05-09 10:33 | -33.08192 | 151.22936 | 36338 ft | 456 kts | 184° |
| 2026-05-09 10:33 | -33.14488 | 151.22573 | 36333 ft | 456 kts | 185° |
| 2026-05-09 10:34 | -33.20826 | 151.22206 | 36350 ft | 456 kts | 184° |
| 2026-05-09 10:34 | -33.30321 | 151.21668 | 36337 ft | 455 kts | 184° |
| 2026-05-09 10:35 | -33.36650 | 151.21308 | 36343 ft | 455 kts | 184° |
| 2026-05-09 10:35 | -33.42989 | 151.20953 | 36339 ft | 454 kts | 184° |
| 2026-05-09 10:36 | -33.49299 | 151.20629 | 36350 ft | 454 kts | 184° |
| 2026-05-09 10:36 | -33.55609 | 151.20310 | 36341 ft | 453 kts | 184° |
| 2026-05-09 10:37 | -33.61903 | 151.19987 | 36339 ft | 452 kts | 184° |
| 2026-05-09 10:37 | -33.68152 | 151.19663 | 36342 ft | 452 kts | 184° |
| 2026-05-09 10:38 | -33.74431 | 151.19338 | 36343 ft | 452 kts | 184° |
| 2026-05-09 10:38 | -33.80716 | 151.19012 | 36347 ft | 451 kts | 184° |
| 2026-05-09 10:39 | -33.86982 | 151.18686 | 36347 ft | 451 kts | 184° |
| 2026-05-09 10:39 | -33.93222 | 151.18088 | 36337 ft | 449 kts | 193° |
| 2026-05-09 10:40 | -33.99040 | 151.15533 | 36352 ft | 445 kts | 208° |
| 2026-05-09 10:40 | -34.04459 | 151.12029 | 36352 ft | 445 kts | 209° |
| 2026-05-09 10:41 | -34.09919 | 151.08481 | 36346 ft | 446 kts | 209° |
| 2026-05-09 10:41 | -34.15398 | 151.04969 | 36342 ft | 446 kts | 209° |
| 2026-05-09 10:42 | -34.20881 | 151.01474 | 36347 ft | 446 kts | 208° |
| 2026-05-09 10:42 | -34.26374 | 150.97971 | 36343 ft | 446 kts | 208° |
| 2026-05-09 10:43 | -34.31862 | 150.94464 | 36358 ft | 446 kts | 208° |
| 2026-05-09 10:43 | -34.37343 | 150.90956 | 36348 ft | 446 kts | 208° |
| 2026-05-09 10:44 | -34.42822 | 150.87443 | 36345 ft | 445 kts | 208° |
| 2026-05-09 10:44 | -34.48260 | 150.83951 | 36351 ft | 445 kts | 209° |
| 2026-05-09 10:46 | -34.61885 | 150.75104 | 36353 ft | 443 kts | 210° |
| 2026-05-09 10:46 | -34.67295 | 150.71507 | 36351 ft | 442 kts | 210° |
| 2026-05-09 10:47 | -34.72691 | 150.67921 | 36351 ft | 442 kts | 209° |
| 2026-05-09 10:47 | -34.78092 | 150.64333 | 36351 ft | 442 kts | 209° |
| 2026-05-09 10:48 | -34.83493 | 150.60741 | 36356 ft | 442 kts | 210° |
| 2026-05-09 10:48 | -34.88856 | 150.57168 | 36367 ft | 442 kts | 210° |
| 2026-05-09 10:49 | -34.94275 | 150.53607 | 36352 ft | 443 kts | 206° |
| 2026-05-09 10:49 | -35.00152 | 150.51354 | 36382 ft | 444 kts | 195° |
| 2026-05-09 10:50 | -35.06168 | 150.49639 | 36364 ft | 444 kts | 194° |
| 2026-05-09 10:50 | -35.12191 | 150.47904 | 36361 ft | 443 kts | 195° |
| 2026-05-09 10:51 | -35.18187 | 150.46137 | 36354 ft | 443 kts | 195° |
| 2026-05-09 10:51 | -35.24129 | 150.44365 | 36352 ft | 442 kts | 195° |
| 2026-05-09 10:52 | -35.30112 | 150.42575 | 36363 ft | 442 kts | 195° |
| 2026-05-09 10:52 | -35.36092 | 150.40783 | 36348 ft | 442 kts | 195° |
| 2026-05-09 10:53 | -35.41052 | 150.39295 | 36357 ft | 441 kts | 195° |
| 2026-05-09 10:53 | -35.47019 | 150.37504 | 36355 ft | 441 kts | 195° |
| 2026-05-09 10:54 | -35.52972 | 150.35714 | 36361 ft | 440 kts | 195° |
| 2026-05-09 10:54 | -35.58917 | 150.33923 | 36349 ft | 440 kts | 195° |
| 2026-05-09 10:55 | -35.64862 | 150.32130 | 36348 ft | 439 kts | 195° |
| 2026-05-09 10:55 | -35.70808 | 150.30334 | 36356 ft | 438 kts | 195° |
| 2026-05-09 10:56 | -35.76698 | 150.28551 | 36350 ft | 438 kts | 195° |
| 2026-05-09 10:56 | -35.82633 | 150.26753 | 36353 ft | 437 kts | 195° |
| 2026-05-09 10:57 | -35.88547 | 150.24958 | 36350 ft | 437 kts | 196° |
| 2026-05-09 10:57 | -35.94459 | 150.23161 | 36350 ft | 437 kts | 196° |
| 2026-05-09 10:58 | -36.00320 | 150.21376 | 36347 ft | 436 kts | 196° |
| 2026-05-09 10:58 | -36.06219 | 150.19578 | 36348 ft | 436 kts | 196° |
| 2026-05-09 10:59 | -36.12116 | 150.17777 | 36352 ft | 436 kts | 196° |
| 2026-05-09 10:59 | -36.18013 | 150.15973 | 36352 ft | 436 kts | 195° |
| 2026-05-09 11:00 | -36.23906 | 150.14168 | 36356 ft | 436 kts | 195° |
| 2026-05-09 11:00 | -36.29755 | 150.12374 | 36369 ft | 436 kts | 196° |
| 2026-05-09 11:01 | -36.35647 | 150.10563 | 36353 ft | 436 kts | 196° |
| 2026-05-09 11:01 | -36.41546 | 150.08748 | 36350 ft | 436 kts | 196° |
| 2026-05-09 11:02 | -36.47437 | 150.06932 | 36351 ft | 436 kts | 196° |
| 2026-05-09 11:02 | -36.53328 | 150.05113 | 36355 ft | 436 kts | 195° |
| 2026-05-09 11:03 | -36.59213 | 150.03293 | 36355 ft | 436 kts | 195° |
| 2026-05-09 11:03 | -36.65103 | 150.01469 | 36354 ft | 436 kts | 195° |
| 2026-05-09 11:04 | -36.70986 | 149.99645 | 36356 ft | 436 kts | 195° |
| 2026-05-09 11:04 | -36.76835 | 149.97827 | 36355 ft | 436 kts | 195° |
| 2026-05-09 11:05 | -36.82753 | 149.95986 | 36352 ft | 435 kts | 195° |
| 2026-05-09 11:05 | -36.88607 | 149.94161 | 36367 ft | 435 kts | 195° |
| 2026-05-09 11:06 | -36.94478 | 149.92329 | 36361 ft | 435 kts | 195° |
| 2026-05-09 11:06 | -37.00357 | 149.90491 | 36361 ft | 435 kts | 195° |
| 2026-05-09 11:07 | -37.06224 | 149.88653 | 36364 ft | 435 kts | 195° |
| 2026-05-09 11:07 | -37.12093 | 149.86812 | 36365 ft | 434 kts | 195° |
| 2026-05-09 11:08 | -37.17956 | 149.84970 | 36361 ft | 434 kts | 195° |
| 2026-05-09 11:08 | -37.23803 | 149.83131 | 36362 ft | 433 kts | 195° |
| 2026-05-09 11:09 | -37.29618 | 149.81298 | 36367 ft | 433 kts | 194° |
| 2026-05-09 11:09 | -37.35463 | 149.79453 | 36361 ft | 432 kts | 194° |
| 2026-05-09 11:10 | -37.41293 | 149.77609 | 36360 ft | 432 kts | 194° |
| 2026-05-09 11:10 | -37.47117 | 149.75765 | 36362 ft | 431 kts | 194° |
| 2026-05-09 11:11 | -37.52935 | 149.73919 | 36348 ft | 431 kts | 194° |
| 2026-05-09 11:11 | -37.58754 | 149.72070 | 36349 ft | 431 kts | 194° |
| 2026-05-09 11:12 | -37.64535 | 149.70095 | 36355 ft | 430 kts | 196° |
| 2026-05-09 11:12 | -37.70253 | 149.67979 | 36350 ft | 430 kts | 197° |
| 2026-05-09 11:13 | -37.75994 | 149.65850 | 36348 ft | 430 kts | 196° |
| 2026-05-09 11:13 | -37.81737 | 149.63738 | 36345 ft | 429 kts | 196° |
| 2026-05-09 11:14 | -37.87475 | 149.61636 | 36351 ft | 429 kts | 196° |
| 2026-05-09 11:14 | -37.93202 | 149.59538 | 36332 ft | 428 kts | 196° |
| 2026-05-09 11:15 | -37.98922 | 149.57440 | 36343 ft | 427 kts | 196° |
| 2026-05-09 11:15 | -38.04640 | 149.55338 | 36356 ft | 427 kts | 196° |
| 2026-05-09 11:16 | -38.10351 | 149.53235 | 36343 ft | 427 kts | 196° |
| 2026-05-09 11:16 | -38.16051 | 149.51133 | 36341 ft | 427 kts | 196° |
| 2026-05-09 11:17 | -38.21730 | 149.49035 | 36338 ft | 426 kts | 196° |
| 2026-05-09 11:17 | -38.27423 | 149.46928 | 36340 ft | 426 kts | 196° |
| 2026-05-09 11:18 | -38.33120 | 149.44817 | 36342 ft | 426 kts | 196° |
| 2026-05-09 11:18 | -38.38811 | 149.42704 | 36337 ft | 426 kts | 196° |
| 2026-05-09 11:19 | -38.44514 | 149.40584 | 36330 ft | 426 kts | 196° |
| 2026-05-09 11:19 | -38.50213 | 149.38461 | 36336 ft | 426 kts | 196° |
| 2026-05-09 11:20 | -38.55873 | 149.36350 | 36336 ft | 427 kts | 196° |
| 2026-05-09 11:20 | -38.61577 | 149.34218 | 36329 ft | 427 kts | 196° |
| 2026-05-09 11:21 | -38.67288 | 149.32081 | 36331 ft | 427 kts | 196° |
| 2026-05-09 11:21 | -38.72995 | 149.29941 | 36332 ft | 427 kts | 196° |
| 2026-05-09 11:22 | -38.78707 | 149.27796 | 36333 ft | 427 kts | 196° |
| 2026-05-09 11:22 | -38.84376 | 149.25663 | 36328 ft | 427 kts | 196° |
| 2026-05-09 11:23 | -38.90083 | 149.23513 | 36326 ft | 427 kts | 196° |
| 2026-05-09 11:23 | -38.95784 | 149.21361 | 36334 ft | 427 kts | 196° |
| 2026-05-09 11:24 | -39.01480 | 149.19208 | 36325 ft | 426 kts | 196° |
| 2026-05-09 11:24 | -39.07169 | 149.17053 | 36319 ft | 425 kts | 196° |
| 2026-05-09 11:25 | -39.12816 | 149.14911 | 36327 ft | 425 kts | 196° |
| 2026-05-09 11:25 | -39.18484 | 149.12757 | 36319 ft | 424 kts | 196° |
| 2026-05-09 11:26 | -39.24150 | 149.10601 | 36316 ft | 423 kts | 196° |
| 2026-05-09 11:26 | -39.29795 | 149.08448 | 36328 ft | 423 kts | 196° |
| 2026-05-09 11:27 | -39.35440 | 149.06293 | 36314 ft | 422 kts | 196° |
| 2026-05-09 11:27 | -39.41071 | 149.04139 | 36310 ft | 422 kts | 196° |
| 2026-05-09 11:28 | -39.46692 | 149.01985 | 36319 ft | 421 kts | 196° |
| 2026-05-09 11:28 | -39.52309 | 148.99829 | 36318 ft | 421 kts | 196° |
| 2026-05-09 11:29 | -39.57918 | 148.97672 | 36316 ft | 420 kts | 196° |
| 2026-05-09 11:29 | -39.63531 | 148.95510 | 36320 ft | 420 kts | 196° |
| 2026-05-09 11:30 | -39.69099 | 148.93362 | 36313 ft | 420 kts | 196° |
| 2026-05-09 11:30 | -39.74693 | 148.91201 | 36316 ft | 420 kts | 196° |
| 2026-05-09 11:31 | -39.80313 | 148.89025 | 36313 ft | 420 kts | 196° |
| 2026-05-09 11:31 | -39.85919 | 148.86851 | 36314 ft | 421 kts | 197° |
| 2026-05-09 11:32 | -39.91536 | 148.84669 | 36311 ft | 421 kts | 197° |
| 2026-05-09 11:32 | -39.97111 | 148.82499 | 36313 ft | 420 kts | 197° |
| 2026-05-09 11:33 | -40.02713 | 148.80316 | 36310 ft | 420 kts | 197° |
| 2026-05-09 11:33 | -40.11130 | 148.77028 | 36310 ft | 420 kts | 197° |
| 2026-05-09 11:34 | -40.16723 | 148.74837 | 36307 ft | 419 kts | 197° |
| 2026-05-09 11:34 | -40.22312 | 148.72644 | 36309 ft | 419 kts | 197° |
| 2026-05-09 11:35 | -40.27861 | 148.70463 | 36312 ft | 418 kts | 197° |
| 2026-05-09 11:35 | -40.33444 | 148.68264 | 36312 ft | 418 kts | 197° |
| 2026-05-09 11:36 | -40.39016 | 148.66066 | 36313 ft | 418 kts | 197° |
| 2026-05-09 11:36 | -40.44585 | 148.63865 | 36312 ft | 418 kts | 197° |
| 2026-05-09 11:37 | -40.49214 | 148.62033 | 36322 ft | 418 kts | 197° |
| 2026-05-09 11:37 | -40.55682 | 148.59469 | 36309 ft | 417 kts | 197° |
| 2026-05-09 11:38 | -40.60339 | 148.57619 | 36314 ft | 417 kts | 197° |
| 2026-05-09 11:38 | -40.65854 | 148.55425 | 36315 ft | 416 kts | 197° |
| 2026-05-09 11:39 | -40.71409 | 148.53212 | 36319 ft | 416 kts | 197° |
| 2026-05-09 11:40 | -40.79714 | 148.49895 | 36315 ft | 415 kts | 197° |
| 2026-05-09 11:40 | -40.85237 | 148.47685 | 36308 ft | 415 kts | 198° |
| 2026-05-09 11:41 | -40.90763 | 148.45469 | 36321 ft | 415 kts | 198° |
| 2026-05-09 11:41 | -40.96283 | 148.43252 | 36317 ft | 415 kts | 198° |
| 2026-05-09 11:42 | -41.01805 | 148.41030 | 36312 ft | 415 kts | 198° |
| 2026-05-09 11:42 | -41.07340 | 148.38800 | 36319 ft | 416 kts | 198° |
| 2026-05-09 11:43 | -41.12844 | 148.36577 | 36317 ft | 417 kts | 198° |
| 2026-05-09 11:43 | -41.18396 | 148.34331 | 36328 ft | 417 kts | 198° |
| 2026-05-09 11:43 | -41.21193 | 148.33198 | 36037 ft | 423 kts | 198° |
| 2026-05-09 11:44 | -41.24018 | 148.32052 | 35508 ft | 424 kts | 198° |
| 2026-05-09 11:44 | -41.26848 | 148.30904 | 34861 ft | 424 kts | 198° |
| 2026-05-09 11:44 | -41.29672 | 148.29758 | 34220 ft | 425 kts | 198° |
| 2026-05-09 11:44 | -41.32500 | 148.28608 | 33473 ft | 426 kts | 198° |
| 2026-05-09 11:45 | -41.35326 | 148.27395 | 32668 ft | 427 kts | 200° |
| 2026-05-09 11:45 | -41.38099 | 148.26078 | 31927 ft | 429 kts | 200° |
| 2026-05-09 11:45 | -41.40895 | 148.24695 | 31390 ft | 426 kts | 201° |
| 2026-05-09 11:45 | -41.43658 | 148.23313 | 30873 ft | 422 kts | 201° |
| 2026-05-09 11:46 | -41.46402 | 148.21942 | 30359 ft | 419 kts | 200° |
| 2026-05-09 11:46 | -41.49126 | 148.20589 | 29780 ft | 415 kts | 200° |
| 2026-05-09 11:46 | -41.51818 | 148.19259 | 29274 ft | 410 kts | 200° |
| 2026-05-09 11:46 | -41.54485 | 148.17945 | 28750 ft | 406 kts | 200° |
| 2026-05-09 11:47 | -41.57134 | 148.16643 | 28251 ft | 402 kts | 200° |
| 2026-05-09 11:47 | -41.59746 | 148.15359 | 27747 ft | 398 kts | 200° |
| 2026-05-09 11:47 | -41.62300 | 148.14103 | 27257 ft | 394 kts | 200° |
| 2026-05-09 11:47 | -41.64863 | 148.12842 | 26770 ft | 391 kts | 200° |
| 2026-05-09 11:48 | -41.67410 | 148.11588 | 26284 ft | 388 kts | 200° |
| 2026-05-09 11:48 | -41.69937 | 148.10342 | 25813 ft | 385 kts | 200° |
| 2026-05-09 11:48 | -41.72441 | 148.09107 | 25341 ft | 382 kts | 200° |
| 2026-05-09 11:48 | -41.74931 | 148.07878 | 24872 ft | 380 kts | 200° |
| 2026-05-09 11:49 | -41.77405 | 148.06655 | 24403 ft | 378 kts | 200° |
| 2026-05-09 11:49 | -41.79868 | 148.05437 | 23905 ft | 376 kts | 200° |
| 2026-05-09 11:49 | -41.82327 | 148.04220 | 23346 ft | 375 kts | 200° |
| 2026-05-09 11:49 | -41.84765 | 148.03012 | 22848 ft | 371 kts | 200° |
| 2026-05-09 11:50 | -41.87140 | 148.01834 | 22400 ft | 367 kts | 200° |
| 2026-05-09 11:50 | -41.89528 | 148.00649 | 21894 ft | 365 kts | 200° |
| 2026-05-09 11:50 | -41.91929 | 147.99457 | 21045 ft | 371 kts | 200° |
| 2026-05-09 11:50 | -41.94358 | 147.98249 | 20433 ft | 372 kts | 200° |
| 2026-05-09 11:51 | -41.96792 | 147.97038 | 19829 ft | 372 kts | 200° |
| 2026-05-09 11:51 | -41.99219 | 147.95830 | 19250 ft | 372 kts | 200° |
| 2026-05-09 11:51 | -42.01646 | 147.94621 | 18660 ft | 371 kts | 200° |
| 2026-05-09 11:51 | -42.04065 | 147.93415 | 18008 ft | 371 kts | 200° |
| 2026-05-09 11:52 | -42.06480 | 147.92210 | 17358 ft | 370 kts | 200° |
| 2026-05-09 11:52 | -42.08893 | 147.91005 | 16724 ft | 369 kts | 200° |
| 2026-05-09 11:52 | -42.11296 | 147.89804 | 16109 ft | 368 kts | 200° |
| 2026-05-09 11:52 | -42.13698 | 147.88603 | 15499 ft | 367 kts | 200° |
| 2026-05-09 11:53 | -42.16092 | 147.87404 | 14910 ft | 366 kts | 201° |
| 2026-05-09 11:53 | -42.18468 | 147.86213 | 14443 ft | 362 kts | 201° |
| 2026-05-09 11:53 | -42.20813 | 147.85037 | 14009 ft | 356 kts | 201° |
| 2026-05-09 11:53 | -42.23120 | 147.83879 | 13538 ft | 352 kts | 201° |
| 2026-05-09 11:54 | -42.25402 | 147.82733 | 13069 ft | 347 kts | 201° |
| 2026-05-09 11:54 | -42.27625 | 147.81615 | 12627 ft | 343 kts | 201° |
| 2026-05-09 11:54 | -42.29850 | 147.80496 | 12173 ft | 339 kts | 201° |
| 2026-05-09 11:54 | -42.32057 | 147.79385 | 11732 ft | 336 kts | 201° |
| 2026-05-09 11:55 | -42.34259 | 147.78363 | 11287 ft | 334 kts | 195° |
| 2026-05-09 11:56 | -42.45694 | 147.77676 | 9128 ft | 324 kts | 181° |
| 2026-05-09 11:56 | -42.47966 | 147.77676 | 9075 ft | 328 kts | 181° |
| 2026-05-09 11:56 | -42.50214 | 147.77666 | 9032 ft | 326 kts | 181° |
| 2026-05-09 11:57 | -42.52478 | 147.77650 | 9029 ft | 325 kts | 181° |
| 2026-05-09 11:57 | -42.54743 | 147.77629 | 9031 ft | 325 kts | 181° |
| 2026-05-09 11:57 | -42.57018 | 147.77605 | 9024 ft | 325 kts | 181° |
| 2026-05-09 11:57 | -42.59283 | 147.77579 | 9020 ft | 325 kts | 181° |
| 2026-05-09 11:58 | -42.61541 | 147.77552 | 9024 ft | 325 kts | 181° |
| 2026-05-09 11:58 | -42.63802 | 147.77525 | 9016 ft | 325 kts | 181° |
| 2026-05-09 11:58 | -42.66057 | 147.77498 | 9019 ft | 324 kts | 181° |
| 2026-05-09 11:58 | -42.68291 | 147.77471 | 9012 ft | 325 kts | 181° |
| 2026-05-09 11:59 | -42.70526 | 147.77444 | 8996 ft | 315 kts | 181° |
| 2026-05-09 11:59 | -42.72682 | 147.77419 | 8999 ft | 305 kts | 181° |
| 2026-05-09 11:59 | -42.74796 | 147.77393 | 8619 ft | 305 kts | 181° |
| 2026-05-09 11:59 | -42.76919 | 147.77367 | 8239 ft | 302 kts | 181° |
| 2026-05-09 12:00 | -42.78983 | 147.77342 | 7861 ft | 291 kts | 181° |
| 2026-05-09 12:00 | -42.80960 | 147.77318 | 7532 ft | 278 kts | 180° |
| 2026-05-09 12:00 | -42.82862 | 147.77294 | 7204 ft | 268 kts | 180° |
| 2026-05-09 12:00 | -42.84696 | 147.77272 | 6886 ft | 258 kts | 180° |
| 2026-05-09 12:01 | -42.86450 | 147.77012 | 6541 ft | 251 kts | 197° |
| 2026-05-09 12:01 | -42.88018 | 147.76037 | 6236 ft | 244 kts | 204° |
| 2026-05-09 12:01 | -42.89500 | 147.75023 | 5927 ft | 238 kts | 204° |
| 2026-05-09 12:01 | -42.90962 | 147.74017 | 5585 ft | 233 kts | 207° |
| 2026-05-09 12:02 | -42.92134 | 147.72522 | 5262 ft | 233 kts | 234° |
| 2026-05-09 12:02 | -42.92745 | 147.70503 | 5000 ft | 231 kts | 254° |
| 2026-05-09 12:02 | -42.92836 | 147.68322 | 4758 ft | 228 kts | 264° |
| 2026-05-09 12:02 | -42.92830 | 147.66190 | 4498 ft | 223 kts | 264° |
| 2026-05-09 12:03 | -42.92693 | 147.64096 | 4318 ft | 220 kts | 284° |
| 2026-05-09 12:03 | -42.91893 | 147.62398 | 4168 ft | 206 kts | 306° |
| 2026-05-09 12:03 | -42.90936 | 147.61066 | 3984 ft | 190 kts | 308° |
| 2026-05-09 12:03 | -42.90032 | 147.59859 | 3746 ft | 178 kts | 308° |
| 2026-05-09 12:04 | -42.89155 | 147.58682 | 3471 ft | 173 kts | 308° |
| 2026-05-09 12:04 | -42.88333 | 147.57619 | 3547 ft | 164 kts | 313° |
| 2026-05-09 12:04 | -42.87415 | 147.56543 | 3261 ft | 184 kts | 316° |
| 2026-05-09 12:04 | -42.86376 | 147.55445 | 3461 ft | 197 kts | 312° |
| 2026-05-09 12:05 | -42.85323 | 147.54142 | 3679 ft | 209 kts | 311° |
| 2026-05-09 12:05 | -42.84240 | 147.52773 | 3921 ft | 215 kts | 311° |
| 2026-05-09 12:05 | -42.82921 | 147.51746 | 4110 ft | 227 kts | 343° |
| 2026-05-09 12:05 | -42.81340 | 147.51855 | 4341 ft | 233 kts | 20° |
| 2026-05-09 12:06 | -42.79993 | 147.53041 | 4595 ft | 231 kts | 43° |
| 2026-05-09 12:06 | -42.78795 | 147.54521 | 4837 ft | 234 kts | 45° |
| 2026-05-09 12:06 | -42.77586 | 147.56031 | 4998 ft | 237 kts | 45° |
| 2026-05-09 12:06 | -42.76366 | 147.57548 | 4990 ft | 237 kts | 45° |
| 2026-05-09 12:07 | -42.75148 | 147.59058 | 4999 ft | 237 kts | 45° |
| 2026-05-09 12:07 | -42.73926 | 147.60567 | 5002 ft | 236 kts | 46° |
| 2026-05-09 12:07 | -42.72706 | 147.62056 | 5010 ft | 236 kts | 45° |
| 2026-05-09 12:07 | -42.71478 | 147.63551 | 4989 ft | 237 kts | 46° |
| 2026-05-09 12:08 | -42.70258 | 147.65040 | 4993 ft | 234 kts | 49° |
| 2026-05-09 12:08 | -42.69499 | 147.66879 | 5002 ft | 217 kts | 91° |
| 2026-05-09 12:08 | -42.69841 | 147.68859 | 5028 ft | 229 kts | 129° |
| 2026-05-09 12:08 | -42.70959 | 147.70485 | 5022 ft | 247 kts | 148° |
| 2026-05-09 12:09 | -42.72514 | 147.71413 | 5011 ft | 243 kts | 172° |
| 2026-05-09 12:09 | -42.74209 | 147.71590 | 5007 ft | 244 kts | 178° |
| 2026-05-09 12:09 | -42.75908 | 147.71681 | 5000 ft | 243 kts | 179° |
| 2026-05-09 12:10 | -42.80945 | 147.71965 | 5003 ft | 242 kts | 179° |
| 2026-05-09 12:10 | -42.82625 | 147.72073 | 4995 ft | 242 kts | 179° |
| 2026-05-09 12:10 | -42.84303 | 147.72185 | 5003 ft | 241 kts | 179° |
| 2026-05-09 12:11 | -42.85959 | 147.72297 | 4964 ft | 231 kts | 179° |
| 2026-05-09 12:11 | -42.87512 | 147.72405 | 4854 ft | 217 kts | 179° |
| 2026-05-09 12:11 | -42.88978 | 147.72506 | 4737 ft | 204 kts | 179° |
| 2026-05-09 12:11 | -42.90357 | 147.72582 | 4625 ft | 192 kts | 185° |
| 2026-05-09 12:12 | -42.91572 | 147.72002 | 4297 ft | 185 kts | 216° |
| 2026-05-09 12:12 | -42.92429 | 147.70687 | 3844 ft | 189 kts | 239° |
| 2026-05-09 12:12 | -42.92792 | 147.68981 | 3493 ft | 189 kts | 263° |
| 2026-05-09 12:12 | -42.92794 | 147.67209 | 3165 ft | 185 kts | 265° |
| 2026-05-09 12:13 | -42.92799 | 147.65473 | 2837 ft | 181 kts | 265° |
| 2026-05-09 12:13 | -42.92710 | 147.63763 | 2518 ft | 185 kts | 286° |
| 2026-05-09 12:13 | -42.91879 | 147.62393 | 2262 ft | 191 kts | 314° |
| 2026-05-09 12:13 | -42.90945 | 147.61174 | 1936 ft | 185 kts | 310° |
| 2026-05-09 12:14 | -42.90039 | 147.59936 | 1632 ft | 179 kts | 311° |
| 2026-05-09 12:14 | -42.89192 | 147.58777 | 1383 ft | 168 kts | 311° |
| 2026-05-09 12:14 | -42.88398 | 147.57693 | 1098 ft | 157 kts | 312° |
| 2026-05-09 12:14 | -42.87645 | 147.56665 | 910 ft | 152 kts | 313° |
| 2026-05-09 12:15 | -42.86897 | 147.55647 | 698 ft | 150 kts | 314° |
| 2026-05-09 12:15 | -42.86175 | 147.54663 | 481 ft | 144 kts | 314° |
| 2026-05-09 12:15 | -42.85467 | 147.53699 | 304 ft | 143 kts | 314° |
| 2026-05-09 12:15 | -42.84767 | 147.52746 | 117 ft | 142 kts | 314° |
| 2026-05-09 12:16 | -42.84089 | 147.51820 | 23 ft | 127 kts | 316° |
| 2026-05-09 12:16 | -42.83611 | 147.51175 | 22 ft | 66 kts | 315° |
| 2026-05-09 12:16 | -42.83400 | 147.50889 | 23 ft | 31 kts | 315° |
| 2026-05-09 12:16 | -42.83315 | 147.50686 | 21 ft | 18 kts | 262° |
| 2026-05-09 12:17 | -42.83382 | 147.50560 | 22 ft | 17 kts | 216° |
| 2026-05-09 12:17 | -42.83465 | 147.50604 | 23 ft | 13 kts | 135° |
| 2026-05-09 12:17 | -42.83526 | 147.50688 | 22 ft | 10 kts | 134° |
| 2026-05-09 12:17 | -42.83576 | 147.50694 | 21 ft | 8 kts | 221° |
| 2026-05-09 12:18 | -42.83612 | 147.50650 | 21 ft | 5 kts | 195° |
| 2026-05-09 12:18 | -42.83633 | 147.50666 | 21 ft | 3 kts | 145° |
| 2026-05-09 12:18 | -42.83656 | 147.50660 | 21 ft | 4 kts | 219° |
| 2026-05-09 12:18 | -42.83675 | 147.50634 | 21 ft | 3 kts | 224° |
| 2026-05-09 12:19 | -42.83682 | 147.50626 | 21 ft | 0 kts | 224° |